This is the latest recevied weather packets stored in our database for station/object DG4DAZ-6. If no packets are shown the sender has not sent any weather packets the latest 10 day(s).
| Time | Temp. | Humidity | Pressure | Rain* | Wind** | Luminosity | Snow |
|---|---|---|---|---|---|---|---|
| 1777273766 | 11.11° C | 54% | 1023.4 hPa | 0 mm | - | 374 W/m² | - |
| 1777273165 | 10.56° C | 59% | 1023.4 hPa | 0 mm | - | 287 W/m² | - |
| 1777272567 | 10.56° C | 59% | 1023.5 hPa | 0 mm | - | 256 W/m² | - |
| 1777271966 | 10° C | 61% | 1023.5 hPa | 0 mm | - | 247 W/m² | - |
| 1777271367 | 8.89° C | 65% | 1023.5 hPa | 0 mm | - | 200 W/m² | - |
| 1777270766 | 8.33° C | 66% | 1023.5 hPa | 0 mm | - | 180 W/m² | - |
| 1777270166 | 7.22° C | 69% | 1023.4 hPa | 0 mm | - | 187 W/m² | - |
| 1777269566 | 6.11° C | 74% | 1023.4 hPa | 0 mm | - | 155 W/m² | - |
| 1777268967 | 5° C | 79% | 1023.3 hPa | 0 mm | - | 152 W/m² | - |
| 1777268366 | 3.89° C | 82% | 1023.2 hPa | 0 mm | - | 106 W/m² | - |
| 1777267766 | 3.33° C | 82% | 1023.3 hPa | 0 mm | - | 84 W/m² | - |
| 1777267166 | 3.33° C | 82% | 1023.3 hPa | 0 mm | - | 30 W/m² | - |
| 1777266567 | 2.78° C | 82% | 1023.3 hPa | 0 mm | - | 25 W/m² | - |
| 1777265966 | 2.78° C | 81% | 1023.3 hPa | 0 mm | - | 22 W/m² | - |
| 1777265367 | 2.78° C | 80% | 1023.2 hPa | 0 mm | - | 19 W/m² | - |
| 1777264766 | 2.78° C | 79% | 1023.2 hPa | 0 mm | - | 16 W/m² | - |
| 1777264165 | 2.78° C | 78% | 1023.1 hPa | 0 mm | - | 11 W/m² | - |
| 1777263566 | 3.33° C | 77% | 1023 hPa | 0 mm | - | 6 W/m² | - |
| 1777262965 | 3.33° C | 77% | 1023 hPa | 0 mm | - | 0 W/m² | - |
| 1777262367 | 3.33° C | 77% | 1023 hPa | 0 mm | - | 0 W/m² | - |
| 1777261766 | 3.89° C | 75% | 1023 hPa | 0 mm | - | 0 W/m² | - |
| 1777261166 | 3.89° C | 75% | 1023.1 hPa | 0 mm | - | 0 W/m² | - |
| 1777260567 | 3.89° C | 75% | 1023.1 hPa | 0 mm | - | 0 W/m² | - |
| 1777259966 | 4.44° C | 75% | 1023 hPa | 0 mm | - | 0 W/m² | - |
| 1777259367 | 4.44° C | 75% | 1023 hPa | 0 mm | - | 0 W/m² | - |
* Rain latest hour (hover to see other rain measurements)
** Current wind speed in m/s (hover to see current wind gust speed)